This is the latest recevied weather packets stored in our database for station/object HA3YA-WX. If no packets are shown the sender has not sent any weather packets the latest 1 day(s).
| Time | Temp. | Humidity | Pressure | Rain* | Wind** | Luminosity | Snow |
|---|---|---|---|---|---|---|---|
| 1778094093 | 20.56° C | 51% | 997 hPa | - | - | - | - |
| 1778092293 | 21.67° C | 49% | 997 hPa | - | - | - | - |
| 1778091693 | 21.67° C | 49% | 997 hPa | - | - | - | - |
| 1778091093 | 21.67° C | 49% | 996 hPa | - | - | - | - |
| 1778089893 | 21.67° C | 48% | 996.5 hPa | - | - | - | - |
| 1778088093 | 22.22° C | 47% | 996.4 hPa | - | - | - | - |
| 1778087494 | 22.22° C | 46% | 996.4 hPa | - | - | - | - |
| 1778086893 | 22.78° C | 45% | 996.4 hPa | - | - | - | - |
| 1778083293 | 23.89° C | 42% | 996 hPa | - | - | - | - |
| 1778082094 | 23.89° C | 41% | 996.7 hPa | - | - | - | - |
| 1778080293 | 24.44° C | 39% | 996.8 hPa | - | - | - | - |
| 1778076693 | 26.67° C | 36% | 996.9 hPa | - | - | - | - |
| 1778074293 | 28.89° C | 35% | 996 hPa | - | - | - | - |
| 1778073693 | 28.33° C | 36% | 996 hPa | - | - | - | - |
| 1778073093 | 27.78° C | 38% | 996 hPa | - | - | - | - |
| 1778071293 | 27.22° C | 36% | 996 hPa | - | - | - | - |
| 1778067093 | 26.11° C | 45% | 997 hPa | - | - | - | - |
| 1778065893 | 25.56° C | 45% | 997 hPa | - | - | - | - |
| 1778064093 | 24.44° C | 47% | 997 hPa | - | - | - | - |
| 1778063493 | 24.44° C | 46% | 997 hPa | - | - | - | - |
| 1778060493 | 25.56° C | 45% | 998.2 hPa | - | - | - | - |
| 1778059894 | 25° C | 46% | 998.2 hPa | - | - | - | - |
| 1778059293 | 23.89° C | 47% | 998.2 hPa | - | - | - | - |
| 1778058093 | 22.78° C | 49% | 998.2 hPa | - | - | - | - |
| 1778056892 | 21.67° C | 52% | 998.2 hPa | - | - | - | - |
* Rain since midnight (hover to see other rain measurements)
** Current wind speed in m/s (hover to see current wind gust speed)